createdAt,value
2022-08-16T00:07:11.908Z,62.94
2022-08-16T00:17:56.724Z,62.97
2022-08-16T00:28:27.063Z,63.14
2022-08-16T00:38:58.803Z,63.54
2022-08-16T00:49:39.510Z,64.12
2022-08-16T01:00:20.029Z,64.10
2022-08-16T01:10:53.545Z,63.82
2022-08-16T01:21:33.447Z,63.84
2022-08-16T01:32:03.938Z,64.03
2022-08-16T01:42:42.328Z,63.61
2022-08-16T01:53:11.948Z,63.79
2022-08-16T02:03:41.560Z,64.24
2022-08-16T02:14:18.605Z,64.66
2022-08-16T02:24:50.514Z,64.68
2022-08-16T02:35:23.276Z,64.58
2022-08-16T02:45:52.547Z,64.09
2022-08-16T02:56:22.912Z,63.69
2022-08-16T03:06:56.329Z,64.00
2022-08-16T03:17:32.379Z,64.22
2022-08-16T03:28:01.438Z,63.92
2022-08-16T03:38:34.358Z,63.49
2022-08-16T03:49:04.711Z,64.64
2022-08-16T03:59:33.936Z,64.72
2022-08-16T04:10:36.023Z,64.80
2022-08-16T04:20:51.758Z,64.77
2022-08-16T04:31:21.055Z,64.64
2022-08-16T04:41:49.959Z,64.60
2022-08-16T04:52:33.644Z,64.71
2022-08-16T05:03:07.529Z,65.60
2022-08-16T05:13:42.127Z,66.22
2022-08-16T05:24:11.670Z,67.51
2022-08-16T05:34:40.513Z,67.35
2022-08-16T05:45:11.085Z,67.16
2022-08-16T05:55:40.767Z,67.12
2022-08-16T06:06:10.349Z,67.08
2022-08-16T06:16:39.340Z,66.30
2022-08-16T06:27:08.921Z,65.00
2022-08-16T06:37:37.819Z,63.60
2022-08-16T06:48:07.978Z,62.21
2022-08-16T06:58:37.868Z,60.97
2022-08-16T07:09:09.689Z,60.06
2022-08-16T07:20:03.778Z,59.33
2022-08-16T07:30:39.673Z,57.87
2022-08-16T07:41:14.519Z,57.87
2022-08-16T07:51:44.868Z,56.68
2022-08-16T08:02:14.459Z,56.16
2022-08-16T08:12:51.871Z,55.15
2022-08-16T08:23:27.966Z,54.79
2022-08-16T08:34:00.146Z,53.52
2022-08-16T08:44:30.968Z,52.68
2022-08-16T08:55:01.570Z,52.54
2022-08-16T09:05:35.733Z,51.71
2022-08-16T09:16:07.206Z,51.25
2022-08-16T09:26:44.651Z,51.50
2022-08-16T09:37:18.117Z,51.22
2022-08-16T09:47:57.170Z,50.27
2022-08-16T09:58:41.614Z,49.25
2022-08-16T10:09:19.478Z,48.47
2022-08-16T10:19:50.242Z,48.57
2022-08-16T10:30:25.848Z,48.59
2022-08-16T10:40:57.425Z,47.75
2022-08-16T10:51:34.653Z,47.80
2022-08-16T11:02:58.664Z,47.74
2022-08-16T11:24:00.000Z,45.01
2022-08-16T11:34:50.293Z,45.82
2022-08-16T11:45:18.161Z,45.45
2022-08-16T11:55:54.502Z,44.92
2022-08-16T12:06:30.702Z,44.80
2022-08-16T12:17:02.548Z,44.50
2022-08-16T12:27:31.941Z,44.50
2022-08-16T12:38:08.690Z,44.86
2022-08-16T12:49:00.369Z,45.23
2022-08-16T12:59:35.115Z,44.19
2022-08-16T13:10:21.048Z,43.06
2022-08-16T13:21:03.505Z,42.60
2022-08-16T13:31:32.447Z,41.87
2022-08-16T13:42:03.482Z,41.47
2022-08-16T13:52:34.199Z,42.27
2022-08-16T14:03:09.251Z,43.02
2022-08-16T14:13:40.118Z,44.68
2022-08-16T14:24:22.361Z,45.51
2022-08-16T14:35:00.138Z,45.86
2022-08-16T14:45:30.770Z,46.46
2022-08-16T14:55:59.799Z,45.49
2022-08-16T15:06:30.109Z,45.04
2022-08-16T15:16:59.656Z,45.35
2022-08-16T15:27:35.676Z,46.41
2022-08-16T15:38:09.122Z,44.60
2022-08-16T15:48:40.208Z,43.63
2022-08-16T15:59:10.521Z,43.83
2022-08-16T16:09:39.921Z,44.60
2022-08-16T16:20:14.843Z,46.02
2022-08-16T16:30:45.220Z,48.68
2022-08-16T16:41:16.829Z,48.85
2022-08-16T16:51:49.923Z,49.40
2022-08-16T17:02:41.405Z,50.90
2022-08-16T17:13:08.269Z,51.45
2022-08-16T17:23:58.339Z,52.39
2022-08-16T17:34:30.848Z,52.98
2022-08-16T17:45:00.161Z,53.04
2022-08-16T17:55:31.954Z,53.67
2022-08-16T18:06:00.935Z,54.02
2022-08-16T18:16:29.834Z,54.16
2022-08-16T18:27:25.263Z,54.59
2022-08-16T18:37:48.399Z,54.54
2022-08-16T18:48:18.480Z,55.52
2022-08-16T18:58:47.726Z,55.96
2022-08-16T19:09:17.416Z,56.39
2022-08-16T19:19:46.936Z,57.13
2022-08-16T19:30:17.412Z,57.22
2022-08-16T19:40:46.436Z,57.01
2022-08-16T19:51:17.084Z,57.58
2022-08-16T20:01:46.983Z,58.04
2022-08-16T20:12:19.946Z,58.48
2022-08-16T20:22:53.976Z,58.82
2022-08-16T20:33:23.359Z,59.22
2022-08-16T20:43:52.344Z,59.66
2022-08-16T20:54:24.222Z,60.09
2022-08-16T21:04:53.314Z,60.54
2022-08-16T21:15:22.503Z,60.12
2022-08-16T21:25:58.312Z,60.35
2022-08-16T21:36:35.081Z,60.65
2022-08-16T21:47:05.092Z,61.16
2022-08-16T21:57:36.420Z,61.42
2022-08-16T22:08:05.865Z,61.55
2022-08-16T22:18:34.839Z,61.73
2022-08-16T22:29:06.199Z,61.78
2022-08-16T22:39:35.201Z,61.81
2022-08-16T22:50:04.204Z,61.95
2022-08-16T23:00:35.611Z,62.49
2022-08-16T23:11:05.936Z,62.31
2022-08-16T23:21:35.776Z,62.58
2022-08-16T23:32:13.868Z,62.81
2022-08-16T23:42:56.644Z,62.83
2022-08-16T23:53:27.403Z,62.47
